Etusivu
METAR-TAF:

METAR-TAF

Lentoasemat :

Baker City, Oregon, Yhdysvallat

Leveyspiiri: 44-50-14N, Pituuspiiri: 117-48-33W, korkeus merenpinnasta: 1028 m

Tämänhetkinen sää

Tämä raportti tehtiin 53 minuuttia sitten, kello 19.53 UTC
Tuuli 8 kn luoteesta
Lämpötila 27°C
Kosteus 15%
Ilmanpaine 1021 hPa
Näkyvyys: 16.1 km
selkeää

METAR: KBKE 141953Z AUTO 32008KT 10SM CLR 27/M02 A3015 RMK AO2 SLP186 T02671017

Aika: 13:46 (20:46 UTC)

Sääennuste

Tämä raportti tehtiin 3 tuntia ja 26 minuuttia sitten, kello 17.20 UTC
Ennuste voimassa 14. päivästä klo 18 UTC - 15. päivään klo 18 UTC
Tuuli 6 kn pohjoisen/luoteesta
Näkyvyys: 10 km
selkeää
From 14. päivästä klo 2200 UTC
Tuuli 10 kn pohjoisen/luoteesta puuskistuen 18 kn:hen
Näkyvyys: 10 km
selkeää
From 15. päivästä klo 0400 UTC
Tuuli 5 kn eri suunnista
Näkyvyys: 10 km
selkeää

TAF: KBKE 141720Z 1418/1518 33006KT P6SM SKC FM142200 34010G18KT P6SM SKC FM150400 VRB05KT P6SM SKC

Säähavainnot ja -ennusteet yli 4000 lentoasemalta (METAR- ja TAF-raportit).

Käytössä olevat sääasemat on merkitty karttaan keltaisilla ja punaisilla pisteillä.

Aseta hiiri pisteen päälle nähdäksesi sääaseman nimen.

Klikkaa sitten nähdäksesi säähavainnot ja -ennusteet.

Kartan vaihtaminen: klikkaa mustalla rastilla varustettuja vihreitä pisteitä, niin voit zoomata sisään; viivalla varustettua vihreää pistettä, niin voit zoomata ulos tai vihreitä nuolia, niin pääset viereisille kartoille.


METAR-TAF: